createdAt,value
2019-01-31T00:03:33.519Z,14.50
2019-01-31T00:09:29.663Z,15.70
2019-01-31T00:15:00.411Z,16.13
2019-01-31T00:20:40.998Z,15.00
2019-01-31T00:26:11.256Z,16.00
2019-01-31T00:31:45.081Z,15.40
2019-01-31T00:37:10.473Z,14.97
2019-01-31T00:42:38.399Z,16.30
2019-01-31T00:48:27.437Z,15.57
2019-01-31T00:53:54.052Z,16.60
2019-01-31T00:59:21.067Z,17.00
2019-01-31T01:04:59.185Z,16.10
2019-01-31T01:10:25.889Z,16.57
2019-01-31T01:15:59.733Z,16.10
2019-01-31T01:21:12.740Z,15.60
2019-01-31T01:26:43.982Z,16.90
2019-01-31T01:32:17.113Z,17.93
2019-01-31T01:38:13.401Z,17.30
2019-01-31T01:43:39.899Z,18.67
2019-01-31T01:48:59.314Z,17.73
2019-01-31T01:54:45.164Z,18.30
2019-01-31T02:00:26.523Z,17.00
2019-01-31T02:06:01.382Z,18.17
2019-01-31T02:11:49.421Z,18.90
2019-01-31T02:17:20.697Z,18.33
2019-01-31T02:22:46.626Z,20.00
2019-01-31T02:28:28.449Z,19.67
2019-01-31T02:34:24.582Z,20.23
2019-01-31T02:40:09.175Z,20.27
2019-01-31T02:45:55.076Z,18.93
2019-01-31T02:51:39.669Z,19.83
2019-01-31T02:56:55.876Z,19.17
2019-01-31T03:02:46.200Z,19.43
2019-01-31T03:08:34.852Z,18.97
2019-01-31T03:14:10.316Z,23.30
2019-01-31T03:19:32.501Z,20.77
2019-01-31T03:25:25.988Z,22.60
2019-01-31T03:31:06.695Z,22.70
2019-01-31T03:36:49.786Z,21.43
2019-01-31T03:42:36.552Z,23.03
2019-01-31T03:48:10.999Z,22.37
2019-01-31T03:53:42.790Z,22.73
2019-01-31T03:59:28.377Z,23.90
2019-01-31T04:04:55.287Z,23.70
2019-01-31T04:09:58.149Z,25.33
2019-01-31T04:15:01.827Z,22.67
2019-01-31T04:20:06.101Z,25.07
2019-01-31T04:25:09.513Z,24.90
2019-01-31T04:30:14.174Z,25.00
2019-01-31T04:35:17.377Z,26.93
2019-01-31T04:40:30.352Z,27.87
2019-01-31T04:45:25.324Z,25.57
2019-01-31T04:50:28.539Z,27.00
2019-01-31T04:55:32.078Z,25.67
2019-01-31T05:00:35.467Z,27.23
2019-01-31T05:05:38.399Z,24.73
2019-01-31T05:10:43.330Z,24.83
2019-01-31T05:15:46.707Z,27.83
2019-01-31T05:20:49.624Z,26.13
2019-01-31T05:25:52.189Z,26.03
2019-01-31T05:30:55.730Z,27.23
2019-01-31T05:35:59.086Z,27.23
2019-01-31T05:41:02.276Z,24.93
2019-01-31T05:46:05.169Z,23.93
2019-01-31T05:51:08.384Z,26.67
2019-01-31T05:56:10.875Z,26.20
2019-01-31T06:01:14.369Z,27.57
2019-01-31T06:06:17.191Z,26.77
2019-01-31T06:11:20.042Z,28.87
2019-01-31T06:16:22.895Z,26.80
2019-01-31T06:21:26.082Z,28.33
2019-01-31T06:26:29.638Z,27.53
2019-01-31T06:31:33.131Z,29.53
2019-01-31T06:36:35.353Z,26.23
2019-01-31T06:41:38.201Z,29.50
2019-01-31T06:46:41.540Z,27.70
2019-01-31T06:51:44.745Z,27.80
2019-01-31T06:56:48.319Z,27.37
2019-01-31T07:01:51.895Z,28.27
2019-01-31T07:06:55.203Z,27.00
2019-01-31T07:11:58.413Z,26.93
2019-01-31T07:17:01.978Z,28.20
2019-01-31T07:22:05.111Z,29.07
2019-01-31T07:27:07.645Z,27.00
2019-01-31T07:32:10.633Z,26.77
2019-01-31T07:37:13.551Z,26.53
2019-01-31T07:42:16.799Z,25.63
2019-01-31T07:47:19.726Z,26.07
2019-01-31T07:52:22.962Z,31.00
2019-01-31T07:57:26.466Z,26.47
2019-01-31T08:02:29.682Z,25.33
2019-01-31T08:07:32.906Z,25.70
2019-01-31T08:12:37.378Z,27.93
2019-01-31T08:17:40.647Z,25.57
2019-01-31T08:22:44.181Z,28.27
2019-01-31T08:27:48.363Z,26.33
2019-01-31T08:32:51.512Z,27.33
2019-01-31T08:37:54.735Z,26.17
2019-01-31T08:42:57.951Z,26.07
2019-01-31T08:48:01.342Z,26.17
2019-01-31T08:53:04.554Z,26.13
2019-01-31T08:58:07.107Z,22.83
2019-01-31T09:03:09.656Z,28.40
2019-01-31T09:08:12.652Z,27.07
2019-01-31T09:13:15.981Z,28.17
2019-01-31T09:18:19.271Z,27.03
2019-01-31T09:23:47.570Z,25.83
2019-01-31T09:29:21.737Z,28.70
2019-01-31T09:35:05.084Z,29.07
2019-01-31T09:40:31.666Z,29.27
2019-01-31T09:46:00.367Z,29.90
2019-01-31T09:51:54.119Z,29.30
2019-01-31T09:57:29.580Z,32.63
2019-01-31T10:03:07.959Z,30.70
2019-01-31T10:08:33.964Z,31.57
2019-01-31T10:14:12.891Z,30.90
2019-01-31T10:19:40.219Z,31.83
2019-01-31T10:25:05.078Z,28.90
2019-01-31T10:30:26.502Z,31.20
2019-01-31T10:36:13.019Z,30.40
2019-01-31T10:41:57.548Z,28.93
2019-01-31T10:47:32.739Z,30.10
2019-01-31T10:53:07.714Z,30.60
2019-01-31T10:58:45.933Z,31.10
2019-01-31T11:04:30.773Z,32.40
2019-01-31T11:10:30.109Z,31.60
2019-01-31T11:16:03.825Z,29.70
2019-01-31T11:21:40.163Z,31.10
2019-01-31T11:27:20.247Z,30.33
2019-01-31T11:33:19.110Z,27.13
2019-01-31T11:38:45.010Z,29.80
2019-01-31T11:44:26.818Z,30.03
2019-01-31T11:50:07.012Z,27.13
2019-01-31T11:55:20.172Z,28.97
2019-01-31T12:00:24.910Z,28.30
2019-01-31T12:05:27.736Z,28.20
2019-01-31T12:10:31.047Z,26.67
2019-01-31T12:15:35.100Z,24.90
2019-01-31T12:20:38.318Z,25.67
2019-01-31T12:25:41.381Z,25.33
2019-01-31T12:30:43.881Z,23.90
2019-01-31T12:35:47.191Z,23.63
2019-01-31T12:40:50.359Z,24.93
2019-01-31T12:45:53.714Z,22.50
2019-01-31T12:50:57.109Z,22.47
2019-01-31T12:56:00.457Z,22.63
2019-01-31T13:01:04.213Z,21.53
2019-01-31T13:06:06.775Z,21.90
2019-01-31T13:11:09.538Z,22.30
2019-01-31T13:16:12.621Z,21.60
2019-01-31T13:21:16.219Z,23.10
2019-01-31T13:26:19.481Z,20.43
2019-01-31T13:31:22.395Z,19.77
2019-01-31T13:36:25.946Z,20.27
2019-01-31T13:41:29.220Z,19.67
2019-01-31T13:46:32.384Z,20.03
2019-01-31T13:51:34.932Z,14.83
2019-01-31T13:56:45.791Z,14.80
2019-01-31T14:01:44.865Z,15.93
2019-01-31T14:06:47.854Z,17.20
2019-01-31T14:11:51.152Z,17.50
2019-01-31T14:17:01.284Z,16.47
2019-01-31T14:22:04.373Z,12.97
2019-01-31T14:27:07.460Z,15.97
2019-01-31T14:32:10.336Z,16.40
2019-01-31T14:37:13.643Z,15.53
2019-01-31T14:42:16.546Z,15.70
2019-01-31T14:47:19.775Z,15.17
2019-01-31T14:52:22.667Z,17.10
2019-01-31T14:57:25.979Z,15.87
2019-01-31T15:02:28.876Z,16.90
2019-01-31T15:07:31.777Z,16.00
2019-01-31T15:12:35.008Z,16.00
2019-01-31T15:17:38.201Z,15.03
2019-01-31T15:22:41.537Z,17.77
2019-01-31T15:27:44.170Z,16.83
2019-01-31T15:32:47.953Z,17.70
2019-01-31T15:37:52.058Z,17.43
2019-01-31T15:42:55.301Z,19.00
2019-01-31T15:47:58.890Z,20.13
2019-01-31T15:53:01.642Z,20.23
2019-01-31T15:58:05.846Z,21.60
2019-01-31T16:03:10.829Z,21.93
2019-01-31T16:08:14.648Z,20.60
2019-01-31T16:13:18.349Z,23.93
2019-01-31T16:18:21.462Z,22.70
2019-01-31T16:23:25.377Z,20.97
2019-01-31T16:28:28.883Z,19.03
2019-01-31T16:33:31.824Z,19.33
2019-01-31T16:38:36.440Z,20.40
2019-01-31T16:43:39.729Z,20.60
2019-01-31T16:48:43.021Z,19.20
2019-01-31T16:53:46.850Z,23.80
2019-01-31T16:58:50.123Z,18.70
2019-01-31T17:03:53.414Z,18.13
2019-01-31T17:08:56.620Z,20.23
2019-01-31T17:14:00.109Z,18.53
2019-01-31T17:19:03.779Z,19.17
2019-01-31T17:24:06.957Z,19.27
2019-01-31T17:29:11.384Z,20.40
2019-01-31T17:34:14.695Z,19.43
2019-01-31T17:39:17.599Z,18.07
2019-01-31T17:44:20.890Z,17.17
2019-01-31T17:49:24.090Z,18.07
2019-01-31T17:54:26.992Z,16.80
2019-01-31T17:59:29.941Z,15.80
2019-01-31T18:04:33.575Z,17.37
2019-01-31T18:09:36.880Z,17.90
2019-01-31T18:14:40.195Z,15.87
2019-01-31T18:19:43.501Z,16.17
2019-01-31T18:24:47.273Z,17.43
2019-01-31T18:29:50.530Z,15.13
2019-01-31T18:34:54.049Z,18.03
2019-01-31T18:39:58.700Z,17.97
2019-01-31T18:45:02.456Z,17.67
2019-01-31T18:50:08.531Z,17.97
2019-01-31T18:55:12.053Z,19.00
2019-01-31T19:00:23.354Z,19.30
2019-01-31T19:05:27.697Z,19.03
2019-01-31T19:10:42.976Z,16.77
2019-01-31T19:15:40.574Z,18.03
2019-01-31T19:20:44.426Z,16.53
2019-01-31T19:25:49.560Z,17.60
2019-01-31T19:30:55.071Z,17.03
2019-01-31T19:35:59.870Z,17.07
2019-01-31T19:41:05.291Z,16.90
2019-01-31T19:46:16.444Z,18.20
2019-01-31T19:51:22.382Z,17.37
2019-01-31T19:56:29.207Z,16.93
2019-01-31T20:01:36.126Z,15.97
2019-01-31T20:06:43.466Z,16.57
2019-01-31T20:11:50.932Z,15.53
2019-01-31T20:16:56.398Z,16.60
2019-01-31T20:22:01.881Z,15.23
2019-01-31T20:27:06.355Z,14.87
2019-01-31T20:32:13.284Z,14.83
2019-01-31T20:37:18.790Z,16.10
2019-01-31T20:42:24.755Z,16.73
2019-01-31T20:47:32.287Z,15.20
2019-01-31T20:52:39.832Z,17.87
2019-01-31T20:57:45.042Z,18.43
2019-01-31T21:02:51.285Z,19.20
2019-01-31T21:07:59.081Z,19.13
2019-01-31T21:13:06.876Z,20.83
2019-01-31T21:18:13.442Z,20.10
2019-01-31T21:23:18.404Z,20.33
2019-01-31T21:28:22.307Z,18.27
2019-01-31T21:33:26.525Z,21.00
2019-01-31T21:38:30.410Z,19.80
2019-01-31T21:43:33.828Z,22.00
2019-01-31T21:48:37.675Z,21.63
2019-01-31T21:53:41.558Z,19.40
2019-01-31T21:58:44.746Z,21.47
2019-01-31T22:03:48.100Z,22.23
2019-01-31T22:08:51.590Z,21.03
2019-01-31T22:13:55.178Z,23.30
2019-01-31T22:18:58.371Z,23.33
2019-01-31T22:24:01.453Z,24.57
2019-01-31T22:29:04.543Z,24.10
2019-01-31T22:34:07.508Z,24.10
2019-01-31T22:39:10.770Z,26.57
2019-01-31T22:44:13.623Z,25.37
2019-01-31T22:49:17.211Z,25.57
2019-01-31T22:54:20.465Z,25.80
2019-01-31T22:59:23.730Z,27.77
2019-01-31T23:04:27.391Z,29.30
2019-01-31T23:09:32.196Z,26.90
2019-01-31T23:14:35.452Z,28.90
2019-01-31T23:19:38.693Z,29.37
2019-01-31T23:24:42.173Z,27.47
2019-01-31T23:29:45.077Z,27.00
2019-01-31T23:34:48.279Z,27.77
2019-01-31T23:39:50.781Z,26.27
2019-01-31T23:44:54.011Z,28.23
2019-01-31T23:49:57.544Z,25.67
2019-01-31T23:55:01.014Z,30.97
